首页
METAR-TAF:

METAR-TAF

机场 :

赤塔, 俄罗斯

赤塔機場

纬度: 52-05N, 经度: 113-29E, 海拔: 685米

当前天气观测

该预报发布于21分钟前的03:00 UTC
静风
温度 -31°C
湿度 61%
气压 1023 hPa
能见度10公里或以上

METAR: UIAA 200300Z 00000MPS 9999 NSC M31/M36 Q1023 R29/450155 NOSIG RMK QFE708/0945

时间: 12:21 (03:21 UTC)

预报

该预报发布于1小时和21分钟前的02:00 UTC
预报有效从20日的 03点(UTC)到 21日的 03点(UTC)
风速6节,风向西转西北
能见度10公里或以上

TAF: UIAA 200200Z 2003/2103 30003MPS 9999 NSC

超过4000个机场的气象观测和天气预报(METAR&TAF报告)。

可查询的气象台以黄色和红色小点在地图上表示。

将鼠标移到小点上方,可查看气象台名称。

然后点击查看天气观测和预报。

如需切换地图:点击带黑十字的绿色按钮放大地图;点击带横线的绿色按钮缩小地图;或者点击绿色箭头查看邻近地区的地图。


METAR-TAF: